Time;durP1;ratioP1;P1;durP2;ratioP2;P2;SDS_P1;SDS_P2;PMS_P1;PMS_P2;Temp;Humidity;BMP_temperature;BMP_pressure;BME280_temperature;BME280_humidity;BME280_pressure;Samples;Min_cycle;Max_cycle;Signal;HPM_P1;HPM_P2
2023/01/20 00:01:25;;;;;;;;;21.25;19.00;;;;;5.91;70.75;100889.59;5039053;28;45623;-82
2023/01/20 00:03:55;;;;;;;;;26.00;21.50;;;;;5.94;70.92;100897.53;5049264;28;45341;-82
2023/01/20 00:06:21;;;;;;;;;27.75;21.75;;;;;5.92;70.32;100897.53;5038830;28;45486;-82
2023/01/20 00:08:51;;;;;;;;;25.00;23.00;;;;;6.00;70.78;100921.34;5040112;28;45573;-82
2023/01/20 00:11:17;;;;;;;;;16.25;15.00;;;;;5.88;70.31;100902.88;5047208;28;45810;-82
2023/01/20 00:13:42;;;;;;;;;18.75;16.25;;;;;5.92;70.73;100909.91;5059036;28;45285;-82
2023/01/20 00:16:09;;;;;;;;;21.00;19.50;;;;;5.86;70.58;100902.03;5053020;28;45423;-82
2023/01/20 00:18:35;;;;;;;;;15.00;13.50;;;;;5.97;70.29;100920.50;5065275;28;47386;-82
2023/01/20 00:21:03;;;;;;;;;22.50;17.25;;;;;5.95;69.90;100917.84;5053593;28;45444;-82
2023/01/20 00:23:28;;;;;;;;;12.50;11.00;;;;;6.03;69.50;100941.63;5038822;28;45685;-82
2023/01/20 00:25:53;;;;;;;;;17.75;15.00;;;;;6.00;70.38;100933.69;5038655;28;45698;-82
2023/01/20 00:28:19;;;;;;;;;21.50;15.00;;;;;5.93;70.24;100930.19;5038925;28;46213;-82
2023/01/20 00:30:44;;;;;;;;;16.25;16.25;;;;;5.99;69.37;100950.50;5052342;28;45450;-81
2023/01/20 00:33:09;;;;;;;;;15.25;14.25;;;;;5.79;69.87;100925.06;5038719;28;45273;-81
2023/01/20 00:35:37;;;;;;;;;20.25;18.00;;;;;5.89;70.18;100950.56;5046135;28;45283;-81
2023/01/20 00:38:02;;;;;;;;;18.25;13.75;;;;;5.82;69.28;100940.06;5056427;28;45492;-81
2023/01/20 00:40:27;;;;;;;;;21.75;19.75;;;;;5.76;70.37;100938.31;5040016;28;45361;-81
2023/01/20 00:42:53;;;;;;;;;15.25;14.50;;;;;5.71;70.11;100937.50;5037416;28;45400;-81
2023/01/20 00:45:18;;;;;;;;;14.50;14.50;;;;;5.75;69.90;100942.75;5052017;28;45330;-81
2023/01/20 00:47:43;;;;;;;;;19.25;18.25;;;;;5.83;70.11;100957.69;5048347;28;46501;-81
2023/01/20 00:50:09;;;;;;;;;21.25;18.50;;;;;5.78;70.33;100954.19;5057227;28;45309;-81
2023/01/20 00:52:34;;;;;;;;;21.75;19.25;;;;;5.87;70.12;100968.25;5056020;28;45431;-81
2023/01/20 00:55:00;;;;;;;;;20.00;17.25;;;;;5.81;69.93;100955.06;5041222;28;45381;-81
2023/01/20 00:57:25;;;;;;;;;22.25;18.50;;;;;5.89;70.35;100974.41;5038071;28;45306;-81
2023/01/20 00:59:51;;;;;;;;;20.25;15.50;;;;;5.84;69.66;100970.91;5042554;28;45396;-81
2023/01/20 01:02:16;;;;;;;;;17.50;17.50;;;;;5.84;69.35;100962.97;5053981;28;45324;-81
2023/01/20 01:04:42;;;;;;;;;21.75;15.00;;;;;5.85;70.28;100975.34;5056399;28;45426;-81
2023/01/20 01:07:08;;;;;;;;;20.25;15.50;;;;;5.84;70.29;100962.97;5041512;28;46038;-81
2023/01/20 01:09:33;;;;;;;;;15.25;13.75;;;;;5.89;70.13;100970.88;5041016;28;45645;-81
2023/01/20 01:11:59;;;;;;;;;13.50;10.00;;;;;5.91;69.49;100972.66;5054024;28;45352;-81
2023/01/20 01:14:24;;;;;;;;;17.00;13.50;;;;;5.78;70.06;100957.75;5048565;28;45273;-81
2023/01/20 01:16:49;;;;;;;;;22.25;17.50;;;;;5.87;69.82;100967.38;5061393;28;46054;-81
2023/01/20 01:19:17;;;;;;;;;19.75;18.00;;;;;5.88;69.58;100977.97;5063673;28;45405;-81
2023/01/20 01:21:42;;;;;;;;;17.00;16.25;;;;;5.97;69.01;100995.56;5054965;28;45403;-82
2023/01/20 01:24:07;;;;;;;;;19.00;18.00;;;;;5.96;69.41;100999.09;5043975;28;45515;-82
2023/01/20 01:26:33;;;;;;;;;17.25;16.00;;;;;5.87;69.07;100994.75;5041147;28;46394;-82
2023/01/20 01:28:58;;;;;;;;;11.75;9.25;;;;;5.82;69.55;100996.56;5050797;28;45379;-82
2023/01/20 01:31:23;;;;;;;;;17.75;16.25;;;;;5.70;69.23;100989.59;5042735;28;45357;-82
2023/01/20 01:33:49;;;;;;;;;17.50;13.75;;;;;5.76;69.31;100996.59;5042795;28;45422;-82
2023/01/20 01:36:16;;;;;;;;;14.25;14.00;;;;;5.82;69.82;101017.75;5054626;28;45435;-82
2023/01/20 01:38:42;;;;;;;;;16.75;13.50;;;;;5.82;69.79;101020.41;5054601;28;45358;-81
2023/01/20 01:41:14;;;;;;;;;18.00;15.50;;;;;5.84;68.99;101031.84;5049704;28;45275;-81
2023/01/20 01:44:00;;;;;;;;;18.50;18.00;;;;;5.83;69.42;101039.81;5058981;28;45483;-81
2023/01/20 01:46:25;;;;;;;;;15.25;13.00;;;;;5.78;69.57;101034.56;5061044;28;45223;-81
2023/01/20 01:48:51;;;;;;;;;20.00;16.75;;;;;5.81;69.55;101041.59;5054024;28;45330;-81
2023/01/20 01:51:22;;;;;;;;;22.75;17.50;;;;;5.75;69.95;101046.06;5053406;28;45468;-81
2023/01/20 01:53:56;;;;;;;;;23.25;19.00;;;;;5.76;69.63;101044.28;5052950;28;45743;-81
2023/01/20 01:56:24;;;;;;;;;8.00;6.50;;;;;5.73;69.54;101053.16;5051015;28;47364;-81
2023/01/20 01:58:52;;;;;;;;;18.50;15.00;;;;;5.62;68.97;101060.28;5058291;28;45517;-81
2023/01/20 02:01:17;;;;;;;;;15.75;12.50;;;;;5.56;69.26;101050.63;5045531;28;45238;-81
2023/01/20 02:03:58;;;;;;;;;13.00;10.50;;;;;5.44;69.42;101036.56;5045396;28;45440;-81
2023/01/20 02:06:28;;;;;;;;;22.50;18.00;;;;;5.56;69.29;101053.28;5040744;28;45465;-81
2023/01/20 02:08:54;;;;;;;;;22.25;20.00;;;;;5.56;69.52;101049.72;5040227;28;45221;-81
2023/01/20 02:11:19;;;;;;;;;23.25;20.50;;;;;5.67;69.12;101070.84;5055139;28;45243;-81
2023/01/20 02:13:45;;;;;;;;;21.25;19.00;;;;;5.55;68.96;101048.84;5058622;28;45253;-81
2023/01/20 02:16:36;;;;;;;;;20.25;16.25;;;;;5.62;69.24;101070.00;5049499;28;46828;-81
2023/01/20 02:19:43;;;;;;;;;21.00;16.75;;;;;5.65;68.66;101081.44;5054462;28;46056;-81
2023/01/20 02:22:16;;;;;;;;;15.75;15.25;;;;;5.59;69.39;101076.19;5021782;28;45433;-81
2023/01/20 02:25:00;;;;;;;;;17.50;15.50;;;;;5.55;69.63;101070.03;5059156;28;45201;-81
2023/01/20 02:27:39;;;;;;;;;22.25;19.50;;;;;5.52;69.89;101074.47;5055389;28;45492;-81
2023/01/20 02:30:37;;;;;;;;;24.50;18.00;;;;;5.46;69.62;101072.72;5047415;28;46919;-81
2023/01/20 02:33:14;;;;;;;;;22.25;18.50;;;;;5.46;70.11;101072.72;5044554;28;45429;-81
2023/01/20 02:35:48;;;;;;;;;22.25;20.75;;;;;5.41;70.02;101069.22;5059728;28;45323;-81
2023/01/20 02:38:29;;;;;;;;;24.75;21.00;;;;;5.49;69.98;101080.66;5047986;28;45402;-81
2023/01/20 02:41:17;;;;;;;;;24.75;21.75;;;;;5.51;70.07;101083.31;5043101;28;45370;-81
2023/01/20 02:43:42;;;;;;;;;24.25;22.25;;;;;5.52;70.13;101099.19;5052863;28;45467;-81
2023/01/20 02:46:17;;;;;;;;;22.25;16.25;;;;;5.54;69.87;101101.81;5049619;28;45571;-81
2023/01/20 02:48:51;;;;;;;;;27.25;21.75;;;;;5.52;69.92;101104.47;5053015;28;45457;-81
2023/01/20 02:51:23;;;;;;;;;33.00;25.00;;;;;5.55;70.13;101111.53;5052194;28;45283;-81
2023/01/20 02:53:53;;;;;;;;;28.50;23.50;;;;;5.51;70.04;101102.75;5058833;28;45291;-81
2023/01/20 02:56:24;;;;;;;;;26.00;24.75;;;;;5.37;70.73;101076.31;5043344;28;45472;-81
2023/01/20 02:59:05;;;;;;;;;33.25;27.25;;;;;5.52;70.39;101099.19;5047339;28;46296;-81
2023/01/20 03:01:39;;;;;;;;;26.75;22.25;;;;;5.60;69.88;101109.75;5042316;28;45275;-81
2023/01/20 03:04:08;;;;;;;;;25.75;20.25;;;;;5.63;70.70;101122.06;5039836;28;45338;-81
2023/01/20 03:06:42;;;;;;;;;32.50;26.00;;;;;5.60;69.38;101111.47;5039565;28;45404;-81
2023/01/20 03:09:15;;;;;;;;;22.33;18.00;;;;;5.64;69.32;101126.50;5051164;28;48122;-81
2023/01/20 03:11:50;;;;;;;;;20.75;17.50;;;;;5.54;70.01;101118.59;5049478;28;45691;-81
2023/01/20 03:14:16;;;;;;;;;31.50;27.50;;;;;5.61;69.79;101118.56;5054520;28;45328;-81
2023/01/20 03:16:42;;;;;;;;;26.25;20.75;;;;;5.58;69.86;101124.78;5054479;28;45546;-81
2023/01/20 03:19:09;;;;;;;;;18.00;18.00;;;;;5.41;70.21;101105.44;5051172;28;46012;-81
2023/01/20 03:21:35;;;;;;;;;20.50;17.50;;;;;5.49;69.81;101130.09;5046912;28;45402;-81
2023/01/20 03:24:03;;;;;;;;;20.75;19.00;;;;;5.60;70.87;101146.81;5042370;28;45460;-81
2023/01/20 03:26:29;;;;;;;;;23.75;20.50;;;;;5.56;70.25;101145.06;5047663;28;46111;-81
2023/01/20 03:28:55;;;;;;;;;21.75;16.25;;;;;5.48;69.82;101125.69;5055373;28;45848;-81
2023/01/20 03:31:28;;;;;;;;;18.00;14.50;;;;;5.54;69.88;101146.84;5047313;28;45544;-81
2023/01/20 03:33:58;;;;;;;;;26.25;22.50;;;;;5.52;69.95;101138.91;5053432;28;45524;-81
2023/01/20 03:36:27;;;;;;;;;20.75;16.00;;;;;5.62;69.85;101160.94;5053664;28;45302;-81
2023/01/20 03:38:54;;;;;;;;;21.75;17.25;;;;;5.59;69.75;101149.47;5044806;28;45381;-81
2023/01/20 03:41:28;;;;;;;;;22.25;19.00;;;;;5.66;69.71;101159.13;5049048;28;45337;-81
2023/01/20 03:44:10;;;;;;;;;19.25;18.25;;;;;5.68;69.80;101158.25;5058264;28;45582;-81
2023/01/20 03:46:41;;;;;;;;;17.50;17.00;;;;;5.68;70.41;101162.66;5043320;28;45412;-81
2023/01/20 03:49:24;;;;;;;;;19.25;16.50;;;;;5.50;69.03;101132.75;5038909;28;46097;-81
2023/01/20 03:52:05;;;;;;;;;21.75;16.75;;;;;5.69;69.53;101167.06;5038719;28;45512;-81
2023/01/20 03:54:41;;;;;;;;;21.00;18.00;;;;;5.59;69.06;101155.63;5038969;28;45290;-81
2023/01/20 03:57:12;;;;;;;;;22.00;17.75;;;;;5.72;69.90;101172.34;5046150;28;45433;-81
2023/01/20 03:59:41;;;;;;;;;19.25;15.25;;;;;5.65;69.77;101162.69;5043441;28;45285;-81
2023/01/20 04:02:08;;;;;;;;;20.75;16.75;;;;;5.73;68.69;101172.34;5037923;28;45799;-81
2023/01/20 04:04:37;;;;;;;;;16.75;15.50;;;;;5.72;69.68;101181.16;5052403;28;45375;-81
2023/01/20 04:07:09;;;;;;;;;17.50;17.00;;;;;5.63;69.04;101160.06;5038852;28;45375;-81
2023/01/20 04:09:40;;;;;;;;;22.25;21.75;;;;;5.74;69.11;101184.69;5050864;28;47415;-81
2023/01/20 04:12:06;;;;;;;;;25.75;19.00;;;;;5.63;69.98;101165.34;5045192;28;45391;-81
2023/01/20 04:14:34;;;;;;;;;17.75;17.00;;;;;5.66;69.19;101161.78;5041234;28;45410;-81
2023/01/20 04:16:59;;;;;;;;;21.25;16.75;;;;;5.70;69.27;101182.97;5055275;28;45500;-81
2023/01/20 04:19:25;;;;;;;;;13.50;13.50;;;;;5.68;69.21;101176.78;5055316;28;48577;-81
2023/01/20 04:22:00;;;;;;;;;18.00;14.25;;;;;5.67;69.35;101190.03;5055144;28;45296;-81
2023/01/20 04:24:36;;;;;;;;;14.75;14.25;;;;;5.66;68.77;101188.28;5051397;28;45280;-81
2023/01/20 04:27:01;;;;;;;;;18.50;15.75;;;;;5.69;68.71;101196.22;5049013;28;45357;-81
2023/01/20 04:29:27;;;;;;;;;17.75;11.50;;;;;5.58;68.80;101185.69;5051020;28;45299;-81
2023/01/20 04:32:02;;;;;;;;;19.50;14.50;;;;;5.66;69.04;101205.03;5045148;28;45281;-81
2023/01/20 04:34:28;;;;;;;;;19.50;14.50;;;;;5.69;69.00;101206.81;5045114;28;45444;-81
2023/01/20 04:36:53;;;;;;;;;17.75;13.50;;;;;5.72;69.19;101215.59;5056005;28;45293;-81
2023/01/20 04:39:19;;;;;;;;;15.00;14.75;;;;;5.65;69.49;101200.66;5041626;28;45267;-81
2023/01/20 04:41:46;;;;;;;;;15.00;13.50;;;;;5.72;69.17;101212.09;5041781;28;45355;-81
2023/01/20 04:44:11;;;;;;;;;17.25;14.50;;;;;5.66;69.24;101207.69;5054688;28;45327;-81
2023/01/20 04:46:36;;;;;;;;;17.75;15.75;;;;;5.70;69.39;101216.53;5041984;28;45256;-81
2023/01/20 04:49:02;;;;;;;;;14.50;12.00;;;;;5.62;68.84;101210.38;5045481;28;48268;-81
2023/01/20 04:51:27;;;;;;;;;15.00;14.00;;;;;5.69;69.11;101226.22;5046925;28;45404;-81
2023/01/20 04:53:56;;;;;;;;;13.25;11.25;;;;;5.61;68.57;101214.78;5061889;28;45358;-81
2023/01/20 04:56:22;;;;;;;;;22.25;19.00;;;;;5.64;68.58;101230.66;5048427;28;45421;-81
2023/01/20 04:58:47;;;;;;;;;16.00;15.50;;;;;5.58;69.51;101220.09;5049623;28;46694;-82
2023/01/20 05:01:13;;;;;;;;;18.50;14.00;;;;;5.65;69.27;101229.78;5056406;28;45551;-81
2023/01/20 05:03:38;;;;;;;;;20.00;18.25;;;;;5.53;68.93;101216.56;5046323;28;45305;-81
2023/01/20 05:06:05;;;;;;;;;20.25;18.00;;;;;5.61;68.25;101230.66;5046805;28;45292;-81
2023/01/20 05:08:31;;;;;;;;;14.00;13.25;;;;;5.54;68.32;101219.22;5041217;28;45693;-82
2023/01/20 05:10:56;;;;;;;;;17.75;15.75;;;;;5.57;68.22;101234.22;5042221;28;45393;-81
2023/01/20 05:13:21;;;;;;;;;24.00;15.00;;;;;5.53;68.46;101225.41;5060040;28;45369;-81
2023/01/20 05:15:47;;;;;;;;;15.75;13.00;;;;;5.63;68.51;101249.19;5061941;28;45665;-81
2023/01/20 05:18:12;;;;;;;;;17.75;15.00;;;;;5.51;68.65;101232.50;5064671;28;47302;-81
2023/01/20 05:20:37;;;;;;;;;10.75;9.50;;;;;5.52;68.13;101244.81;5054672;28;45283;-81
2023/01/20 05:23:06;;;;;;;;;19.50;18.00;;;;;5.49;67.93;101254.56;5056602;28;45239;-81
2023/01/20 05:25:31;;;;;;;;;21.00;18.50;;;;;5.29;68.61;101234.31;5046541;28;45491;-81
2023/01/20 05:27:58;;;;;;;;;19.00;17.25;;;;;5.46;68.58;101260.72;5046012;28;47673;-81
2023/01/20 05:30:23;;;;;;;;;22.00;20.00;;;;;5.39;68.53;101264.28;5055882;28;45298;-81
2023/01/20 05:32:49;;;;;;;;;23.50;20.00;;;;;5.37;68.05;101263.41;5047590;28;45192;-81
2023/01/20 05:35:15;;;;;;;;;22.75;17.75;;;;;5.44;68.44;101272.22;5043601;28;45552;-81
2023/01/20 05:37:40;;;;;;;;;19.00;17.50;;;;;5.38;68.31;101263.41;5053668;28;45951;-81
2023/01/20 05:40:07;;;;;;;;;25.25;18.50;;;;;5.39;68.52;101266.94;5053598;28;45282;-81
2023/01/20 05:42:32;;;;;;;;;18.50;18.50;;;;;5.43;68.12;101276.66;5051574;28;45377;-81
2023/01/20 05:44:57;;;;;;;;;19.75;17.00;;;;;5.34;68.09;101269.59;5060225;28;45525;-81
2023/01/20 05:47:23;;;;;;;;;22.50;18.00;;;;;5.14;68.84;101237.00;5043419;28;45925;-81
2023/01/20 05:49:48;;;;;;;;;23.50;18.00;;;;;5.29;68.44;101273.13;5046184;28;45398;-81
2023/01/20 05:52:13;;;;;;;;;21.75;20.25;;;;;5.32;68.77;101286.38;5052947;28;45359;-81
2023/01/20 05:54:39;;;;;;;;;12.25;12.25;;;;;5.22;68.58;101274.91;5040311;28;45421;-81
2023/01/20 05:57:04;;;;;;;;;27.75;21.75;;;;;5.22;68.81;101285.50;5040623;28;46427;-81
2023/01/20 05:59:30;;;;;;;;;18.75;18.25;;;;;5.19;68.64;101283.75;5053944;28;45404;-81
2023/01/20 06:01:56;;;;;;;;;25.50;23.75;;;;;5.26;68.82;101296.97;5043227;28;45343;-81
2023/01/20 06:04:21;;;;;;;;;18.50;18.50;;;;;5.16;68.79;101274.91;5058720;28;45510;-81
2023/01/20 06:06:46;;;;;;;;;27.00;20.25;;;;;5.24;67.65;101289.03;5054455;28;47514;-81
2023/01/20 06:09:12;;;;;;;;;23.75;20.75;;;;;5.20;68.68;101282.84;5057932;28;45861;-81
2023/01/20 06:11:37;;;;;;;;;21.00;19.50;;;;;5.22;68.18;101287.28;5042051;28;45445;-81
2023/01/20 06:14:02;;;;;;;;;26.25;21.75;;;;;5.25;67.88;101300.50;5060053;28;45366;-81
2023/01/20 06:16:28;;;;;;;;;26.25;21.50;;;;;5.17;67.73;101287.28;5044425;28;45981;-81
2023/01/20 06:18:54;;;;;;;;;15.00;12.50;;;;;5.14;67.85;101285.50;5064871;28;45295;-81
2023/01/20 06:21:19;;;;;;;;;32.50;23.75;;;;;5.31;68.52;101308.41;5043638;28;45390;-81
2023/01/20 06:23:45;;;;;;;;;20.25;17.75;;;;;5.20;68.27;101290.78;5045397;28;45489;-81
2023/01/20 06:26:12;;;;;;;;;21.50;20.25;;;;;5.22;68.38;101290.78;5052201;28;47036;-81
2023/01/20 06:28:38;;;;;;;;;23.50;19.25;;;;;5.28;68.45;101304.03;5053320;28;45757;-81
2023/01/20 06:31:06;;;;;;;;;19.50;17.75;;;;;5.14;68.22;101282.84;5059191;28;45361;-81
2023/01/20 06:33:32;;;;;;;;;17.00;14.75;;;;;5.14;67.53;101285.50;5042995;28;45297;-81
2023/01/20 06:35:58;;;;;;;;;21.75;18.75;;;;;5.22;67.87;101308.44;5053101;28;47804;-81
2023/01/20 06:38:25;;;;;;;;;27.50;21.00;;;;;5.16;67.93;101299.63;5058899;28;45691;-81
2023/01/20 06:40:59;;;;;;;;;26.25;20.00;;;;;5.20;67.98;101311.09;5040663;28;45357;-81
2023/01/20 06:43:24;;;;;;;;;23.50;20.50;;;;;5.19;67.99;101307.56;5042091;28;46578;-81
2023/01/20 06:45:50;;;;;;;;;25.00;20.75;;;;;5.13;67.90;101312.88;5050622;28;46165;-81
2023/01/20 06:48:15;;;;;;;;;21.00;17.00;;;;;5.10;68.37;101312.88;5040021;28;45355;-81
2023/01/20 06:50:41;;;;;;;;;30.50;21.25;;;;;5.09;67.56;101320.81;5045101;28;45324;-81
2023/01/20 06:53:07;;;;;;;;;22.75;17.00;;;;;4.92;68.68;101308.44;5054509;28;45422;-82
2023/01/20 06:55:32;;;;;;;;;12.00;8.00;;;;;5.03;68.17;101326.09;5051158;28;45749;-82
2023/01/20 06:57:58;;;;;;;;;23.50;20.50;;;;;4.74;68.58;101274.06;5057332;28;45258;-82
2023/01/20 07:00:23;;;;;;;;;24.50;20.25;;;;;4.90;68.65;101314.66;5039733;28;45357;-82
2023/01/20 07:02:49;;;;;;;;;25.50;23.00;;;;;4.99;68.62;101330.50;5053209;28;45321;-82
2023/01/20 07:05:14;;;;;;;;;19.00;17.25;;;;;4.96;68.15;101318.16;5055454;28;47239;-82
2023/01/20 07:07:43;;;;;;;;;29.00;22.25;;;;;5.07;68.58;101333.16;5048046;28;45954;-82
2023/01/20 07:10:09;;;;;;;;;22.25;20.25;;;;;5.02;68.71;101346.38;5054484;28;45368;-82
2023/01/20 07:12:35;;;;;;;;;28.75;24.50;;;;;4.89;68.38;101326.97;5051180;28;45450;-82
2023/01/20 07:15:00;;;;;;;;;28.75;21.75;;;;;4.98;68.34;101349.94;5046205;28;45172;-82
2023/01/20 07:17:25;;;;;;;;;28.75;26.00;;;;;4.90;68.16;101346.38;5054355;28;46015;-82
2023/01/20 07:19:51;;;;;;;;;27.25;26.50;;;;;4.90;68.34;101349.91;5040338;28;45436;-83
2023/01/20 07:22:16;;;;;;;;;27.25;24.00;;;;;4.88;68.28;101356.06;5049209;28;45608;-82
2023/01/20 07:24:41;;;;;;;;;29.75;25.25;;;;;4.89;68.24;101363.13;5047588;28;45296;-82
2023/01/20 07:27:07;;;;;;;;;36.00;28.00;;;;;4.91;68.83;101353.44;5052011;28;45426;-82
2023/01/20 07:29:32;;;;;;;;;33.25;28.25;;;;;4.99;69.20;101373.75;5069143;28;45421;-83
2023/01/20 07:31:58;;;;;;;;;32.50;25.75;;;;;4.89;68.52;101357.84;5056496;28;45268;-83
2023/01/20 07:34:23;;;;;;;;;32.00;26.75;;;;;4.75;68.42;101336.69;5045912;28;50514;-83
2023/01/20 07:36:52;;;;;;;;;33.75;24.75;;;;;4.99;68.38;101392.25;5050427;28;45433;-82
2023/01/20 07:39:18;;;;;;;;;27.75;23.75;;;;;4.82;68.42;101371.06;5062174;28;45444;-83
2023/01/20 07:41:59;;;;;;;;;28.25;27.25;;;;;4.80;68.38;101375.47;5014436;28;45445;-83
2023/01/20 07:44:24;;;;;;;;;34.75;25.00;;;;;4.87;68.72;101392.22;5052938;28;46228;-83
2023/01/20 07:46:50;;;;;;;;;29.00;25.00;;;;;4.78;68.58;101387.81;5043020;28;45396;-83
2023/01/20 07:49:15;;;;;;;;;29.00;24.75;;;;;4.77;68.79;101383.38;5043202;28;45276;-83
2023/01/20 07:51:42;;;;;;;;;30.00;20.50;;;;;4.76;68.45;101381.66;5054671;28;45468;-83
2023/01/20 07:54:10;;;;;;;;;33.75;26.50;;;;;4.72;68.93;101377.22;5051597;28;45585;-83
2023/01/20 07:56:35;;;;;;;;;32.00;24.75;;;;;4.69;68.39;101385.13;5042139;28;45645;-83
2023/01/20 07:59:01;;;;;;;;;29.75;25.25;;;;;4.79;68.75;101413.41;5042797;28;45457;-80
2023/01/20 08:01:29;;;;;;;;;26.25;22.25;;;;;4.81;68.57;101414.28;5057711;28;45359;-80
2023/01/20 08:03:55;;;;;;;;;24.75;21.25;;;;;4.79;68.92;101408.09;5039981;28;47332;-79
2023/01/20 08:06:22;;;;;;;;;29.00;22.75;;;;;4.85;69.22;101403.72;5038788;28;45370;-81
2023/01/20 08:08:48;;;;;;;;;27.25;21.75;;;;;4.87;69.44;101407.22;5049404;28;45500;-81
2023/01/20 08:11:16;;;;;;;;;28.50;25.50;;;;;4.77;68.75;101388.69;5037503;28;45311;-81
2023/01/20 08:13:41;;;;;;;;;12.75;9.00;;;;;4.72;68.22;101389.56;5050230;28;46718;-81
2023/01/20 08:16:09;;;;;;;;;10.75;8.50;;;;;4.70;68.35;101399.25;5042365;28;45635;-80
2023/01/20 08:18:35;;;;;;;;;31.75;25.00;;;;;4.65;68.81;101396.59;5061078;28;45342;-80
2023/01/20 08:21:05;;;;;;;;;29.75;25.25;;;;;4.54;68.84;101379.81;5066857;28;45430;-80
2023/01/20 08:23:31;;;;;;;;;27.75;23.50;;;;;4.63;69.22;101403.66;5058732;28;48299;-80
2023/01/20 08:26:06;;;;;;;;;25.00;21.00;;;;;4.55;69.40;101393.03;5072467;28;45722;-81
2023/01/20 08:28:34;;;;;;;;;28.50;18.75;;;;;4.69;68.70;101416.88;5046693;27;45377;-81
2023/01/20 08:31:17;;;;;;;;;32.75;29.75;;;;;4.70;68.76;101407.19;5051348;28;45438;-81
2023/01/20 08:33:43;;;;;;;;;24.50;23.25;;;;;4.64;69.72;101403.66;5062839;28;46532;-81
2023/01/20 08:36:11;;;;;;;;;26.25;24.50;;;;;4.82;69.68;101423.97;5061207;28;45531;-81
2023/01/20 08:38:37;;;;;;;;;26.50;23.25;;;;;4.81;69.43;101429.25;5047077;28;45232;-81
2023/01/20 08:41:11;;;;;;;;;27.75;23.00;;;;;4.68;69.05;101408.94;5052118;28;45514;-81
2023/01/20 08:43:37;;;;;;;;;19.50;12.75;;;;;4.64;68.94;101406.31;5050434;28;45833;-80
2023/01/20 08:46:11;;;;;;;;;26.25;22.50;;;;;4.78;68.83;101423.97;5058338;28;45819;-80
2023/01/20 08:48:37;;;;;;;;;17.75;17.25;;;;;4.84;69.15;101437.19;5047469;28;45493;-81
2023/01/20 08:51:09;;;;;;;;;25.00;23.00;;;;;4.91;69.67;101443.38;5047721;28;45632;-81
2023/01/20 08:53:35;;;;;;;;;14.00;13.50;;;;;4.93;68.78;101447.81;5054028;28;46296;-81
2023/01/20 08:56:01;;;;;;;;;27.00;23.50;;;;;4.96;69.06;101437.22;5056956;28;45294;-81
2023/01/20 08:58:30;;;;;;;;;26.00;21.50;;;;;4.94;69.32;101428.38;5056231;27;45372;-81
2023/01/20 09:00:56;;;;;;;;;26.50;20.25;;;;;4.82;68.97;101408.09;5065227;28;45436;-81
2023/01/20 09:03:22;;;;;;;;;28.50;26.00;;;;;4.96;68.72;101431.94;5059074;28;47453;-81
2023/01/20 09:05:48;;;;;;;;;23.00;21.00;;;;;4.95;68.83;101427.53;5070201;28;45369;-81
2023/01/20 09:08:16;;;;;;;;;22.25;19.25;;;;;5.06;69.46;101437.22;5052143;27;45480;-81
2023/01/20 09:10:41;;;;;;;;;19.75;19.75;;;;;4.98;69.13;101424.88;5050239;28;45642;-80
2023/01/20 09:13:06;;;;;;;;;16.00;14.25;;;;;5.06;69.34;101440.78;5045652;28;46151;-80
2023/01/20 09:15:32;;;;;;;;;21.25;13.75;;;;;5.17;68.56;101460.19;5052358;28;45260;-80
2023/01/20 09:18:00;;;;;;;;;18.25;14.00;;;;;5.10;68.25;101439.03;5064439;28;45298;-80
2023/01/20 09:20:27;;;;;;;;;12.25;11.50;;;;;5.22;68.84;101454.91;5057955;28;45580;-80
2023/01/20 09:22:53;;;;;;;;;15.25;14.00;;;;;5.19;69.25;101449.59;5047141;28;45352;-80
2023/01/20 09:25:21;;;;;;;;;16.25;14.00;;;;;5.31;69.05;101460.22;5059716;28;45448;-80
2023/01/20 09:27:46;;;;;;;;;14.00;14.00;;;;;5.31;68.68;101456.66;5047015;28;45354;-80
2023/01/20 09:30:12;;;;;;;;;16.00;12.75;;;;;5.25;69.05;101446.09;5055446;28;45374;-79
2023/01/20 09:32:38;;;;;;;;;11.50;11.50;;;;;5.34;68.46;101461.97;5060560;28;45548;-79
2023/01/20 09:35:04;;;;;;;;;15.00;13.00;;;;;5.47;68.79;101469.03;5054082;28;45394;-80
2023/01/20 09:43:54;;;;;;;;;13.75;10.00;;;;;5.40;68.09;101459.34;5056324;28;45561;-81
2023/01/20 09:46:29;;;;;;;;;13.50;13.00;;;;;5.57;68.04;101472.56;5045535;28;45631;-82
2023/01/20 09:55:29;;;;;;;;;14.75;13.00;;;;;5.65;68.74;101476.13;5052607;28;45763;-83
2023/01/20 09:58:10;;;;;;;;;6.00;6.00;;;;;5.72;68.10;101488.47;5069525;27;45545;-83
2023/01/20 10:00:38;;;;;;;;;11.50;11.00;;;;;5.64;68.59;101474.34;5055655;28;45425;-82
2023/01/20 10:03:36;;;;;;;;;9.50;9.50;;;;;5.82;68.12;101491.13;5048972;28;45278;-82
2023/01/20 10:06:10;;;;;;;;;12.50;10.75;;;;;5.83;68.42;101488.47;5051060;28;45485;-82
2023/01/20 10:08:46;;;;;;;;;11.00;10.00;;;;;5.87;68.07;101484.91;5044282;28;45425;-82
2023/01/20 10:11:17;;;;;;;;;14.50;11.00;;;;;5.89;68.68;101480.50;5043145;28;45395;-82
2023/01/20 10:14:00;;;;;;;;;8.50;8.50;;;;;6.03;68.19;101495.53;5051748;28;45378;-82
2023/01/20 10:16:38;;;;;;;;;10.00;7.00;;;;;5.93;68.66;101470.75;5052351;28;47926;-82
2023/01/20 10:19:13;;;;;;;;;10.75;6.25;;;;;6.10;69.09;101492.00;5054317;28;46165;-82
2023/01/20 10:21:54;;;;;;;;;9.50;7.50;;;;;6.14;68.94;101492.88;5057010;28;45388;-82
2023/01/20 10:24:28;;;;;;;;;10.50;8.75;;;;;6.17;69.23;101496.41;5057148;28;45741;-82
2023/01/20 10:27:00;;;;;;;;;10.75;7.00;;;;;6.07;69.46;101478.75;5057286;28;47231;-82
2023/01/20 10:29:35;;;;;;;;;9.50;9.50;;;;;6.22;69.04;101504.34;5051175;28;45738;-82
2023/01/20 10:32:35;;;;;;;;;9.75;6.75;;;;;6.14;69.73;101480.50;5038732;28;45806;-82
2023/01/20 10:35:14;;;;;;;;;10.50;8.50;;;;;6.27;69.96;101498.13;5052256;28;45476;-82
2023/01/20 10:37:40;;;;;;;;;7.00;7.00;;;;;6.20;69.30;101482.22;5051876;28;45966;-82
2023/01/20 10:40:33;;;;;;;;;9.00;6.75;;;;;6.32;68.97;101495.47;5046134;28;46075;-82
2023/01/20 10:43:08;;;;;;;;;6.50;6.00;;;;;6.33;69.66;101496.34;5058803;28;45407;-82
2023/01/20 10:45:46;;;;;;;;;12.50;9.50;;;;;6.27;69.16;101486.66;5044792;28;46143;-82
2023/01/20 10:48:33;;;;;;;;;6.00;6.00;;;;;6.38;68.86;101505.19;5053427;28;46535;-82
2023/01/20 10:51:31;;;;;;;;;8.50;6.25;;;;;6.38;69.01;101508.72;5052976;28;46110;-83
2023/01/20 10:54:08;;;;;;;;;10.75;9.50;;;;;6.40;68.57;101499.00;5032143;28;45439;-82
2023/01/20 10:56:41;;;;;;;;;3.50;1.25;;;;;6.42;68.00;101493.69;5043858;28;45888;-82
2023/01/20 10:59:14;;;;;;;;;7.75;7.75;;;;;6.46;68.64;101498.06;5046510;28;45459;-83
2023/01/20 11:01:41;;;;;;;;;11.50;10.00;;;;;6.44;68.40;101500.72;5046467;28;46111;-82
2023/01/20 11:04:16;;;;;;;;;8.50;7.00;;;;;6.45;68.46;101493.69;5037326;28;45420;-82
2023/01/20 11:06:41;;;;;;;;;9.50;8.50;;;;;6.40;68.09;101487.47;5038198;28;45605;-82
2023/01/20 11:09:41;;;;;;;;;9.50;9.50;;;;;6.48;67.67;101493.66;5050824;28;47152;-81
2023/01/20 11:12:13;;;;;;;;;15.25;14.50;;;;;6.47;67.95;101482.16;5013009;28;45378;-80
2023/01/20 11:14:39;;;;;;;;;6.75;6.75;;;;;6.53;68.17;101497.16;5043770;28;46368;-81
2023/01/20 11:17:11;;;;;;;;;8.00;8.00;;;;;6.53;67.51;101499.81;5065438;28;45378;-79
2023/01/20 11:20:06;;;;;;;;;9.00;6.75;;;;;6.56;67.49;101494.50;5037342;28;46111;-80
2023/01/20 11:22:36;;;;;;;;;10.25;6.50;;;;;6.51;67.41;101484.81;5030886;28;45461;-81
2023/01/20 11:25:04;;;;;;;;;10.25;9.50;;;;;6.58;67.52;101489.19;5054232;28;45594;-78
2023/01/20 11:27:45;;;;;;;;;7.50;7.00;;;;;6.55;67.06;101481.25;5056137;28;45687;-79
2023/01/20 11:30:32;;;;;;;;;10.00;6.75;;;;;6.62;66.95;101499.78;5046437;28;48140;-79
2023/01/20 11:33:25;;;;;;;;;8.25;6.75;;;;;6.64;67.24;101498.00;5049968;28;45681;-79
2023/01/20 11:36:06;;;;;;;;;10.25;7.00;;;;;6.57;67.02;101468.88;5062195;27;45395;-79
2023/01/20 11:38:41;;;;;;;;;11.25;9.25;;;;;6.67;67.08;101494.47;5043299;28;45275;-80
2023/01/20 11:41:18;;;;;;;;;7.75;6.00;;;;;6.62;66.83;101477.69;5037132;28;45338;-79
2023/01/20 11:43:44;;;;;;;;;8.75;6.75;;;;;6.66;66.60;101474.13;5038122;28;45657;-79